createdAt,value
2018-11-28T00:00:48.964Z,1010.75
2018-11-28T00:01:54.484Z,1010.74
2018-11-28T00:02:58.977Z,1010.74
2018-11-28T00:04:04.472Z,1010.72
2018-11-28T00:05:09.975Z,1010.71
2018-11-28T00:06:16.512Z,1010.70
2018-11-28T00:07:22.022Z,1010.68
2018-11-28T00:08:26.496Z,1010.68
2018-11-28T00:09:31.989Z,1010.69
2018-11-28T00:10:37.497Z,1010.72
2018-11-28T00:11:44.021Z,1010.67
2018-11-28T00:12:49.524Z,1010.69
2018-11-28T00:13:54.049Z,1010.66
2018-11-28T00:14:59.517Z,1010.63
2018-11-28T08:11:30.600Z,1010.23
2018-11-28T08:12:36.025Z,1010.27
2018-11-28T08:14:34.842Z,1010.31
2018-11-28T08:15:40.328Z,1010.30
2018-11-28T08:16:45.801Z,1010.29
2018-11-28T08:17:51.306Z,1010.31
2018-11-28T08:18:56.815Z,1010.27
2018-11-28T08:20:02.325Z,1010.22
2018-11-28T08:21:07.822Z,1010.26
2018-11-28T08:22:13.327Z,1010.21
2018-11-28T08:23:18.836Z,1010.21
2018-11-28T08:24:24.340Z,1010.25
2018-11-28T08:25:29.846Z,1010.23
2018-11-28T08:26:35.355Z,1010.24
2018-11-28T08:27:40.968Z,1010.21
2018-11-28T08:28:46.363Z,1010.24
2018-11-28T08:29:51.866Z,1010.20
2018-11-28T08:30:57.387Z,1010.20
2018-11-28T08:32:02.991Z,1010.20
2018-11-28T08:33:08.385Z,1010.16
2018-11-28T08:34:13.886Z,1010.14
2018-11-28T08:35:19.397Z,1010.18
2018-11-28T08:36:24.907Z,1010.18
2018-11-28T08:37:30.406Z,1010.21
2018-11-28T08:38:35.917Z,1010.16
2018-11-28T08:39:41.418Z,1010.18
2018-11-28T08:40:46.921Z,1010.20
2018-11-28T08:41:52.442Z,1010.19
2018-11-28T08:42:57.938Z,1010.20
2018-11-28T08:44:03.438Z,1010.19
2018-11-28T08:45:08.946Z,1010.22
2018-11-28T08:46:14.452Z,1010.20
2018-11-28T08:47:19.957Z,1010.15
2018-11-28T08:48:25.495Z,1010.10
2018-11-28T08:49:30.971Z,1010.20
2018-11-28T08:50:36.475Z,1010.19
2018-11-28T08:51:41.996Z,1010.21
2018-11-28T08:52:47.505Z,1010.23
2018-11-28T08:53:52.989Z,1010.16
2018-11-28T08:54:58.494Z,1010.27
2018-11-28T08:56:04.005Z,1010.24
2018-11-28T08:57:09.515Z,1010.23
2018-11-28T08:58:15.017Z,1010.25
2018-11-28T08:59:20.531Z,1010.23
2018-11-28T09:00:26.047Z,1010.27
2018-11-28T09:01:31.571Z,1010.26
2018-11-28T09:02:37.046Z,1010.26
2018-11-28T09:03:42.549Z,1010.27
2018-11-28T09:04:48.060Z,1010.26
2018-11-28T09:05:53.567Z,1010.23
2018-11-28T09:06:59.076Z,1010.22
2018-11-28T09:08:04.578Z,1010.22
2018-11-28T09:09:10.135Z,1010.23
2018-11-28T09:10:15.652Z,1010.23
2018-11-28T09:11:21.102Z,1010.21
2018-11-28T09:12:26.618Z,1010.18
2018-11-28T09:13:32.138Z,1010.22
2018-11-28T09:14:37.617Z,1010.18
2018-11-28T09:15:43.128Z,1010.13
2018-11-28T09:16:48.632Z,1010.14
2018-11-28T09:17:54.142Z,1010.18
2018-11-28T09:18:59.646Z,1010.09
2018-11-28T09:20:05.155Z,1010.14
2018-11-28T09:21:10.668Z,1010.12
2018-11-28T09:22:16.170Z,1010.08
2018-11-28T09:23:21.676Z,1010.10
2018-11-28T09:24:27.191Z,1010.13
2018-11-28T09:25:32.690Z,1010.13
2018-11-28T09:26:38.200Z,1010.12
2018-11-28T09:27:43.704Z,1010.09
2018-11-28T09:28:49.218Z,1010.14
2018-11-28T09:29:54.728Z,1010.10
2018-11-28T09:31:00.224Z,1010.11
2018-11-28T09:32:05.736Z,1010.11
2018-11-28T09:33:11.240Z,1010.10
2018-11-28T09:34:16.755Z,1010.13
2018-11-28T09:35:22.268Z,1010.11
2018-11-28T09:36:27.753Z,1010.13
2018-11-28T09:37:33.271Z,1010.20
2018-11-28T09:38:38.777Z,1010.22
2018-11-28T09:39:44.282Z,1010.20
2018-11-28T09:40:49.798Z,1010.25
2018-11-28T09:41:55.298Z,1010.22
2018-11-28T09:43:00.803Z,1010.25
2018-11-28T09:44:06.319Z,1010.27
2018-11-28T09:45:11.827Z,1010.29
2018-11-28T09:46:17.330Z,1010.30
2018-11-28T09:47:22.837Z,1010.31
2018-11-28T09:48:28.925Z,1010.24
2018-11-28T09:49:33.849Z,1010.29
2018-11-28T09:50:39.363Z,1010.28
2018-11-28T09:51:44.866Z,1010.29
2018-11-28T09:52:50.375Z,1010.34
2018-11-28T09:53:55.881Z,1010.25
2018-11-28T09:55:01.382Z,1010.30
2018-11-28T09:56:06.892Z,1010.26
2018-11-28T09:57:12.401Z,1010.26
2018-11-28T09:58:17.911Z,1010.29
2018-11-28T09:59:23.414Z,1010.27
2018-11-28T10:00:28.921Z,1010.22
2018-11-28T10:01:34.537Z,1010.22
2018-11-28T10:02:39.939Z,1010.27
2018-11-28T10:03:45.445Z,1010.23
2018-11-28T10:04:50.955Z,1010.26
2018-11-28T10:05:56.457Z,1010.25
2018-11-28T10:07:01.968Z,1010.26
2018-11-28T10:08:07.484Z,1010.31
2018-11-28T10:09:12.988Z,1010.24
2018-11-28T10:10:18.503Z,1010.29
2018-11-28T10:11:23.991Z,1010.25
2018-11-28T10:12:29.509Z,1010.21
2018-11-28T10:13:35.016Z,1010.23
2018-11-28T10:14:40.519Z,1010.26
2018-11-28T10:15:46.025Z,1010.20
2018-11-28T10:16:52.210Z,1010.18
2018-11-28T10:17:57.044Z,1010.17
2018-11-28T10:19:02.555Z,1010.17
2018-11-28T10:20:08.059Z,1010.19
2018-11-28T10:21:13.575Z,1010.15
2018-11-28T10:22:19.083Z,1010.14
2018-11-28T10:23:24.581Z,1010.20
2018-11-28T10:24:30.090Z,1010.08
2018-11-28T10:25:35.597Z,1010.09
2018-11-28T10:26:41.108Z,1010.05
2018-11-28T10:27:46.614Z,1010.00
2018-11-28T10:28:52.122Z,1010.02
2018-11-28T10:29:57.632Z,1009.96
2018-11-28T10:31:03.137Z,1010.03
2018-11-28T10:32:08.643Z,1009.95
2018-11-28T10:33:14.155Z,1009.93
2018-11-28T10:34:19.675Z,1009.97
2018-11-28T10:35:25.179Z,1009.88
2018-11-28T10:36:30.684Z,1009.92
2018-11-28T10:37:36.190Z,1009.87
2018-11-28T10:38:41.690Z,1009.88
2018-11-28T10:39:47.203Z,1009.86
2018-11-28T10:40:52.708Z,1009.88
2018-11-28T10:41:58.217Z,1009.85
2018-11-28T10:43:03.726Z,1009.84
2018-11-28T10:44:09.246Z,1009.83
2018-11-28T10:45:14.749Z,1009.81
2018-11-28T10:46:20.249Z,1009.75
2018-11-28T10:47:25.761Z,1009.72
2018-11-28T10:48:31.268Z,1009.73
2018-11-28T10:49:36.772Z,1009.72
2018-11-28T10:50:42.281Z,1009.70
2018-11-28T10:51:50.272Z,1009.76
2018-11-28T10:52:53.300Z,1009.70
2018-11-28T10:53:58.808Z,1009.68
2018-11-28T10:55:04.315Z,1009.64
2018-11-28T10:56:09.829Z,1009.63
2018-11-28T10:57:15.332Z,1009.58
2018-11-28T10:58:20.842Z,1009.61
2018-11-28T10:59:26.353Z,1009.56
2018-11-28T11:00:31.854Z,1009.51
2018-11-28T11:01:37.367Z,1009.55
2018-11-28T11:02:42.877Z,1009.55
2018-11-28T11:03:48.378Z,1009.52
2018-11-28T11:04:53.964Z,1009.51
2018-11-28T11:05:59.397Z,1009.53
2018-11-28T11:07:04.910Z,1009.55
2018-11-28T11:08:10.421Z,1009.58
2018-11-28T11:09:15.931Z,1009.52
2018-11-28T11:10:21.438Z,1009.54
2018-11-28T11:11:26.948Z,1009.50
2018-11-28T11:12:32.444Z,1009.56
2018-11-28T11:13:37.957Z,1009.51
2018-11-28T11:14:43.467Z,1009.50
2018-11-28T11:15:48.975Z,1009.50
2018-11-28T11:16:54.598Z,1009.44
2018-11-28T11:18:02.270Z,1009.47
2018-11-28T11:19:05.501Z,1009.48
2018-11-28T11:20:11.017Z,1009.48
2018-11-28T11:21:16.515Z,1009.33
2018-11-28T11:22:22.022Z,1009.48
2018-11-28T11:23:27.535Z,1009.44
2018-11-28T11:24:33.044Z,1009.41
2018-11-28T11:25:38.550Z,1009.46
2018-11-28T11:26:44.064Z,1009.48
2018-11-28T11:27:49.568Z,1009.53
2018-11-28T11:28:55.078Z,1009.48
2018-11-28T11:30:00.582Z,1009.43
2018-11-28T11:31:06.093Z,1009.38
2018-11-28T11:32:11.595Z,1009.35
2018-11-28T11:33:17.109Z,1009.36
2018-11-28T11:34:22.621Z,1009.33
2018-11-28T11:35:28.124Z,1009.37
2018-11-28T11:36:33.637Z,1009.34
2018-11-28T11:37:39.144Z,1009.44
2018-11-28T11:38:44.651Z,1009.41
2018-11-28T11:39:50.170Z,1009.38
2018-11-28T11:40:55.673Z,1009.40
2018-11-28T11:42:01.178Z,1009.39
2018-11-28T11:43:06.718Z,1009.36
2018-11-28T11:44:12.193Z,1009.31
2018-11-28T11:45:17.706Z,1009.36
2018-11-28T11:46:23.221Z,1009.35
2018-11-28T11:47:28.727Z,1009.34
2018-11-28T11:48:34.227Z,1009.26
2018-11-28T11:49:39.736Z,1009.26
2018-11-28T11:50:45.262Z,1009.30
2018-11-28T11:51:50.757Z,1009.21
2018-11-28T11:52:56.267Z,1009.23
2018-11-28T11:54:01.794Z,1009.14
2018-11-28T11:55:07.291Z,1009.21
2018-11-28T11:56:12.790Z,1009.18
2018-11-28T11:57:18.310Z,1009.17
2018-11-28T11:58:23.815Z,1009.22
2018-11-28T11:59:29.317Z,1009.15
2018-11-28T12:00:34.828Z,1009.12
2018-11-28T12:01:40.339Z,1009.12
2018-11-28T12:02:45.845Z,1009.15
2018-11-28T12:03:51.352Z,1009.04
2018-11-28T12:04:56.865Z,1009.05
2018-11-28T12:06:02.379Z,1009.07
2018-11-28T12:07:07.878Z,1009.14
2018-11-28T12:08:13.388Z,1009.10
2018-11-28T12:09:18.910Z,1009.13
2018-11-28T12:10:24.408Z,1009.09
2018-11-28T12:11:29.921Z,1009.08
2018-11-28T12:12:35.429Z,1009.13
2018-11-28T12:13:40.930Z,1009.13
2018-11-28T12:14:46.446Z,1009.08
2018-11-28T12:15:51.951Z,1009.12
2018-11-28T12:16:57.460Z,1009.08
2018-11-28T12:18:02.966Z,1009.09
2018-11-28T12:19:08.548Z,1009.10
2018-11-28T12:20:13.987Z,1009.04
2018-11-28T12:21:19.494Z,1009.05
2018-11-28T12:22:25.003Z,1009.09
2018-11-28T12:23:30.515Z,1009.09
2018-11-28T12:24:36.023Z,1009.08
2018-11-28T12:25:41.528Z,1009.05
2018-11-28T12:26:47.039Z,1009.06
2018-11-28T12:27:52.547Z,1009.00
2018-11-28T12:28:58.087Z,1008.97
2018-11-28T12:30:03.566Z,1008.99
2018-11-28T12:31:09.076Z,1008.98
2018-11-28T12:32:14.584Z,1008.98
2018-11-28T12:33:20.233Z,1009.03
2018-11-28T12:34:25.596Z,1009.03
2018-11-28T12:35:31.187Z,1008.98
2018-11-28T12:36:36.644Z,1009.00
2018-11-28T12:37:42.132Z,1008.98
2018-11-28T12:38:47.639Z,1008.91
2018-11-28T12:39:53.147Z,1008.93
2018-11-28T12:40:58.678Z,1008.95
2018-11-28T12:42:04.181Z,1009.00
2018-11-28T12:43:09.675Z,1009.01
2018-11-28T12:44:15.179Z,1008.97
2018-11-28T12:45:20.691Z,1008.99
2018-11-28T12:46:26.204Z,1008.95
2018-11-28T12:47:31.709Z,1008.92
2018-11-28T12:48:37.222Z,1008.90
2018-11-28T12:49:42.730Z,1008.93
2018-11-28T12:50:48.240Z,1008.92
2018-11-28T12:51:53.743Z,1008.89
2018-11-28T12:52:59.252Z,1008.91
2018-11-28T12:54:04.887Z,1008.90
2018-11-28T12:55:10.275Z,1008.90
2018-11-28T12:56:15.782Z,1008.90
2018-11-28T12:57:21.298Z,1008.86
2018-11-28T12:58:26.794Z,1008.85
2018-11-28T12:59:32.309Z,1008.82
2018-11-28T13:00:37.820Z,1008.87
2018-11-28T13:01:43.325Z,1008.84
2018-11-28T13:02:48.835Z,1008.81
2018-11-28T13:03:54.341Z,1008.82
2018-11-28T13:05:00.000Z,1008.86
2018-11-28T13:06:05.361Z,1008.84
2018-11-28T13:07:10.871Z,1008.89
2018-11-28T13:08:16.378Z,1008.80
2018-11-28T13:09:21.905Z,1008.77
2018-11-28T13:10:27.402Z,1008.77
2018-11-28T13:11:32.914Z,1008.79
2018-11-28T13:12:38.419Z,1008.80
2018-11-28T13:13:43.925Z,1008.79
2018-11-28T13:14:49.442Z,1008.78
2018-11-28T13:15:54.942Z,1008.81
2018-11-28T13:17:00.462Z,1008.81
2018-11-28T13:18:05.959Z,1008.86
2018-11-28T13:19:11.476Z,1008.93
2018-11-28T13:20:16.984Z,1008.93
2018-11-28T13:21:22.496Z,1008.92
2018-11-28T13:22:28.000Z,1008.94
2018-11-28T13:23:33.510Z,1008.91
2018-11-28T13:24:39.016Z,1008.89
2018-11-28T13:25:44.557Z,1008.89
2018-11-28T13:26:50.037Z,1008.87
2018-11-28T13:27:55.554Z,1008.92
2018-11-28T13:29:01.052Z,1008.91
2018-11-28T13:30:06.556Z,1008.87
2018-11-28T13:31:12.078Z,1008.86
2018-11-28T13:32:17.574Z,1008.81
2018-11-28T13:33:23.096Z,1008.82
2018-11-28T13:34:28.609Z,1008.77
2018-11-28T13:35:34.112Z,1008.78
2018-11-28T13:36:39.614Z,1008.78
2018-11-28T13:37:45.130Z,1008.76
2018-11-28T13:38:50.645Z,1008.81
2018-11-28T13:39:56.144Z,1008.78
2018-11-28T13:41:01.654Z,1008.77
2018-11-28T13:42:07.163Z,1008.73
2018-11-28T13:43:12.682Z,1008.75
2018-11-28T13:44:18.194Z,1008.69
2018-11-28T13:45:23.687Z,1008.55
2018-11-28T13:46:29.196Z,1008.56
2018-11-28T13:47:34.709Z,1008.54
2018-11-28T13:48:40.213Z,1008.49
2018-11-28T13:49:45.724Z,1008.48
2018-11-28T13:50:51.231Z,1008.45
2018-11-28T13:51:56.742Z,1008.51
2018-11-28T13:53:02.244Z,1008.50
2018-11-28T13:54:21.034Z,1008.47
2018-11-28T13:55:43.081Z,1008.36
2018-11-28T13:57:24.838Z,1008.38
2018-11-28T13:58:29.799Z,1008.36
2018-11-28T13:59:35.308Z,1008.32
2018-11-28T14:00:40.815Z,1008.31
2018-11-28T14:01:46.322Z,1008.28
2018-11-28T14:02:52.504Z,1008.23
2018-11-28T14:03:57.346Z,1008.22
2018-11-28T14:05:02.851Z,1008.21
2018-11-28T14:06:08.352Z,1008.20
2018-11-28T14:07:13.871Z,1008.33
2018-11-28T14:08:19.378Z,1008.27
2018-11-28T14:09:24.884Z,1008.28
2018-11-28T14:10:30.405Z,1008.36
2018-11-28T14:11:35.910Z,1008.35
2018-11-28T14:12:41.410Z,1008.31
2018-11-28T14:13:46.924Z,1008.30
2018-11-28T14:14:52.423Z,1008.27
2018-11-28T14:15:57.939Z,1008.26
2018-11-28T14:17:03.446Z,1008.34
2018-11-28T14:18:08.965Z,1008.32
2018-11-28T14:19:14.472Z,1008.33
2018-11-28T14:20:19.970Z,1008.32
2018-11-28T14:21:25.480Z,1008.33
2018-11-28T14:22:31.001Z,1008.29
2018-11-28T14:23:36.504Z,1008.24
2018-11-28T14:24:42.006Z,1008.32
2018-11-28T14:25:47.523Z,1008.32
2018-11-28T14:26:53.024Z,1008.34
2018-11-28T14:27:58.534Z,1008.33
2018-11-28T14:29:04.045Z,1008.41
2018-11-28T14:30:09.551Z,1008.32
2018-11-28T14:31:15.060Z,1008.28
2018-11-28T14:32:20.584Z,1008.25
2018-11-28T14:33:26.084Z,1008.33
2018-11-28T14:34:31.587Z,1008.28
2018-11-28T14:35:37.118Z,1008.28
2018-11-28T14:36:42.654Z,1008.25
2018-11-28T14:37:48.114Z,1008.19
2018-11-28T14:38:53.620Z,1008.23
2018-11-28T14:39:59.136Z,1008.23
2018-11-28T14:41:04.642Z,1008.26
2018-11-28T14:42:10.156Z,1008.21
2018-11-28T14:43:15.658Z,1008.26
2018-11-28T14:44:21.164Z,1008.25
2018-11-28T14:45:26.680Z,1008.19
2018-11-28T14:46:32.184Z,1008.22
2018-11-28T14:47:37.691Z,1008.23
2018-11-28T14:48:43.204Z,1008.21
2018-11-28T14:49:48.718Z,1008.23
2018-11-28T14:50:54.219Z,1008.17
2018-11-28T14:51:59.747Z,1008.23
2018-11-28T14:53:05.241Z,1008.15
2018-11-28T14:54:10.745Z,1008.20
2018-11-28T14:55:16.255Z,1008.16
2018-11-28T14:56:21.765Z,1008.13
2018-11-28T14:57:27.268Z,1008.13
2018-11-28T14:58:32.775Z,1008.17
2018-11-28T14:59:40.434Z,1008.21
2018-11-28T15:00:43.799Z,1008.18
2018-11-28T15:01:49.298Z,1008.14
2018-11-28T15:02:54.816Z,1008.11
2018-11-28T15:04:00.321Z,1008.14
2018-11-28T15:05:05.839Z,1008.15
2018-11-28T15:06:11.343Z,1008.13
2018-11-28T15:07:16.856Z,1008.10
2018-11-28T15:08:22.364Z,1008.13
2018-11-28T15:09:27.872Z,1008.10
2018-11-28T15:10:33.388Z,1008.21
2018-11-28T15:11:38.890Z,1008.16
2018-11-28T15:12:44.396Z,1008.16
2018-11-28T15:13:49.903Z,1008.19
2018-11-28T15:14:55.410Z,1008.14
2018-11-28T15:16:00.922Z,1008.20
2018-11-28T15:17:06.436Z,1008.18
2018-11-28T15:18:11.939Z,1008.17
2018-11-28T15:19:17.449Z,1008.16
2018-11-28T15:20:22.976Z,1008.13
2018-11-28T15:21:28.464Z,1008.16
2018-11-28T15:22:33.972Z,1008.15
2018-11-28T15:23:39.480Z,1008.13
2018-11-28T15:24:44.999Z,1008.15
2018-11-28T15:25:50.502Z,1008.14
2018-11-28T15:26:56.004Z,1008.14
2018-11-28T15:28:01.510Z,1008.09
2018-11-28T15:29:07.031Z,1008.07
2018-11-28T15:30:12.530Z,1008.02
2018-11-28T15:31:18.036Z,1008.05
2018-11-28T15:32:23.547Z,1008.01
2018-11-28T15:33:29.055Z,1008.00
2018-11-28T15:34:34.565Z,1007.94
2018-11-28T15:35:40.076Z,1007.93
2018-11-28T15:36:45.583Z,1007.95
2018-11-28T15:37:51.090Z,1008.01
2018-11-28T15:38:56.598Z,1008.00
2018-11-28T15:40:02.109Z,1007.94
2018-11-28T15:41:07.622Z,1008.00
2018-11-28T15:42:13.124Z,1008.00
2018-11-28T15:43:18.634Z,1007.99
2018-11-28T15:44:24.145Z,1008.05
2018-11-28T15:45:29.650Z,1008.02
2018-11-28T15:46:35.168Z,1008.02
2018-11-28T15:47:40.676Z,1008.05
2018-11-28T15:48:46.181Z,1008.05
2018-11-28T15:49:51.684Z,1007.97
2018-11-28T15:50:57.195Z,1007.97
2018-11-28T15:52:02.713Z,1007.96
2018-11-28T15:53:08.216Z,1007.99
2018-11-28T15:54:13.722Z,1007.96
2018-11-28T15:55:19.229Z,1007.98
2018-11-28T15:56:24.752Z,1007.91
2018-11-28T15:57:30.250Z,1007.97
2018-11-28T15:58:35.752Z,1007.88
2018-11-28T15:59:41.270Z,1007.98
2018-11-28T16:00:46.778Z,1007.94
2018-11-28T16:01:52.280Z,1007.97
2018-11-28T16:02:57.793Z,1007.97
2018-11-28T16:04:03.303Z,1008.03
2018-11-28T16:05:08.816Z,1008.00
2018-11-28T16:06:14.309Z,1007.96
2018-11-28T16:07:19.822Z,1007.95
2018-11-28T16:08:25.335Z,1007.99
2018-11-28T16:09:30.837Z,1007.91
2018-11-28T16:10:36.350Z,1007.87
2018-11-28T16:11:41.852Z,1007.86
2018-11-28T16:12:47.359Z,1007.81
2018-11-28T16:13:52.868Z,1007.82
2018-11-28T16:14:58.378Z,1007.89
2018-11-28T16:16:03.913Z,1007.81
2018-11-28T16:17:09.400Z,1007.84
2018-11-28T16:18:14.919Z,1007.87
2018-11-28T16:19:20.409Z,1007.80
2018-11-28T16:20:25.930Z,1007.82
2018-11-28T16:21:31.433Z,1007.80
2018-11-28T16:22:36.938Z,1007.81
2018-11-28T16:23:42.450Z,1007.76
2018-11-28T16:24:47.956Z,1007.65
2018-11-28T16:25:53.466Z,1007.82
2018-11-28T16:26:58.963Z,1007.83
2018-11-28T16:28:04.481Z,1007.88
2018-11-28T16:29:10.012Z,1007.79
2018-11-28T16:30:15.495Z,1007.86
2018-11-28T16:31:21.006Z,1007.77
2018-11-28T16:32:26.518Z,1007.83
2018-11-28T16:33:32.022Z,1007.78
2018-11-28T16:34:37.524Z,1007.84
2018-11-28T16:35:43.038Z,1007.85
2018-11-28T16:36:48.544Z,1007.88
2018-11-28T16:37:54.062Z,1007.85
2018-11-28T16:38:59.562Z,1007.86
2018-11-28T16:40:05.071Z,1007.91
2018-11-28T16:41:10.576Z,1007.91
2018-11-28T16:42:16.087Z,1007.93
2018-11-28T16:43:21.601Z,1007.90
2018-11-28T16:44:27.105Z,1007.94
2018-11-28T16:45:32.611Z,1007.95
2018-11-28T16:46:38.121Z,1007.96
2018-11-28T16:47:43.635Z,1007.97
2018-11-28T16:48:49.143Z,1007.92
2018-11-28T16:49:54.645Z,1007.91
2018-11-28T16:51:00.160Z,1007.98
2018-11-28T16:52:05.673Z,1007.87
2018-11-28T16:53:11.180Z,1007.93
2018-11-28T16:54:16.679Z,1007.95
2018-11-28T16:55:22.191Z,1007.94
2018-11-28T16:56:27.703Z,1007.99
2018-11-28T16:57:33.498Z,1008.02
2018-11-28T16:58:38.732Z,1007.97
2018-11-28T16:59:44.220Z,1008.01
2018-11-28T17:00:49.728Z,1008.05
2018-11-28T17:01:55.232Z,1008.07
2018-11-28T17:03:00.748Z,1008.08
2018-11-28T17:04:06.259Z,1008.14
2018-11-28T17:05:11.762Z,1008.12
2018-11-28T17:06:17.275Z,1008.17
2018-11-28T17:07:22.787Z,1008.12
2018-11-28T17:08:28.312Z,1008.15
2018-11-28T17:09:33.808Z,1008.16
2018-11-28T17:10:39.308Z,1008.16
2018-11-28T17:11:44.823Z,1008.13
2018-11-28T17:12:50.323Z,1008.15
2018-11-28T17:13:55.837Z,1008.14
2018-11-28T17:15:01.346Z,1008.09
2018-11-28T17:16:06.857Z,1008.10
2018-11-28T17:17:12.361Z,1008.09
2018-11-28T17:18:17.872Z,1008.08
2018-11-28T17:19:23.373Z,1008.11
2018-11-28T17:20:28.884Z,1008.09
2018-11-28T17:21:34.391Z,1008.12
2018-11-28T17:22:39.901Z,1008.10
2018-11-28T17:23:45.411Z,1008.18
2018-11-28T17:24:50.916Z,1008.09
2018-11-28T17:25:56.428Z,1008.12
2018-11-28T17:27:01.948Z,1008.18
2018-11-28T17:28:07.442Z,1008.22
2018-11-28T17:29:12.960Z,1008.21
2018-11-28T17:30:18.995Z,1008.19
2018-11-28T17:31:23.969Z,1008.19
2018-11-28T17:32:29.479Z,1008.20
2018-11-28T17:33:34.985Z,1008.22
2018-11-28T17:34:40.497Z,1008.18
2018-11-28T17:35:46.021Z,1008.20
2018-11-28T17:36:51.521Z,1008.20
2018-11-28T17:37:57.019Z,1008.14
2018-11-28T17:39:02.533Z,1008.16
2018-11-28T17:40:08.036Z,1008.23
2018-11-28T17:41:13.544Z,1008.24
2018-11-28T17:42:19.071Z,1008.23
2018-11-28T17:43:24.563Z,1008.29
2018-11-28T17:44:30.072Z,1008.26
2018-11-28T17:45:35.575Z,1008.25
2018-11-28T17:46:41.083Z,1008.23
2018-11-28T17:47:46.591Z,1008.24
2018-11-28T17:48:52.098Z,1008.27
2018-11-28T17:49:57.609Z,1008.23
2018-11-28T17:51:03.129Z,1008.26
2018-11-28T17:52:08.637Z,1008.23
2018-11-28T17:53:14.136Z,1008.15
2018-11-28T17:54:19.641Z,1008.15
2018-11-28T17:55:25.190Z,1008.14
2018-11-28T17:56:30.654Z,1008.16
2018-11-28T17:57:36.166Z,1008.21
2018-11-28T17:58:41.676Z,1008.18
2018-11-28T17:59:47.186Z,1008.18
2018-11-28T18:00:52.688Z,1008.20
2018-11-28T18:01:58.188Z,1008.13
2018-11-28T18:03:03.704Z,1008.14
2018-11-28T18:04:09.224Z,1008.16
2018-11-28T18:05:14.718Z,1008.12
2018-11-28T18:06:20.230Z,1008.12
2018-11-28T18:07:25.735Z,1008.15
2018-11-28T18:08:31.244Z,1008.20
2018-11-28T18:09:36.750Z,1008.21
2018-11-28T18:10:42.258Z,1008.16
2018-11-28T18:11:47.766Z,1008.14
2018-11-28T18:12:53.277Z,1008.16
2018-11-28T18:13:58.784Z,1008.10
2018-11-28T18:15:04.292Z,1008.09
2018-11-28T18:16:09.804Z,1008.10
2018-11-28T18:17:15.307Z,1008.11
2018-11-28T18:18:20.812Z,1008.12
2018-11-28T18:19:26.323Z,1008.05
2018-11-28T18:20:31.825Z,1008.04
2018-11-28T18:21:37.349Z,1008.00
2018-11-28T18:22:42.845Z,1007.93
2018-11-28T18:23:48.357Z,1007.86
2018-11-28T18:24:53.860Z,1007.90
2018-11-28T18:27:37.180Z,1007.81
2018-11-28T18:28:43.420Z,1007.83
2018-11-28T18:29:47.648Z,1007.84
2018-11-28T18:30:48.250Z,1007.72
2018-11-28T18:31:55.182Z,1007.70
2018-11-28T18:32:58.916Z,1007.82
2018-11-28T18:34:06.815Z,1007.81
2018-11-28T18:35:18.191Z,1007.75
2018-11-28T18:36:32.193Z,1007.79
2018-11-28T18:37:31.684Z,1007.81
2018-11-28T18:38:27.684Z,1007.82
2018-11-28T18:39:38.601Z,1007.75
2018-11-28T18:40:37.691Z,1007.77
2018-11-28T18:41:44.200Z,1007.85
2018-11-28T18:42:53.188Z,1007.85
2018-11-28T18:43:50.823Z,1007.90
2018-11-28T18:45:01.804Z,1007.96
2018-11-28T18:46:12.695Z,1007.92
2018-11-28T18:47:13.585Z,1007.93
2018-11-28T18:48:15.740Z,1007.95
2018-11-28T18:49:21.186Z,1007.93
2018-11-28T18:50:32.688Z,1007.98
2018-11-28T18:51:39.189Z,1007.91
2018-11-28T18:52:42.189Z,1007.95
2018-11-28T18:53:40.690Z,1007.97
2018-11-28T18:54:45.189Z,1007.82
2018-11-28T18:55:55.634Z,1007.90
2018-11-28T18:57:06.498Z,1007.90
2018-11-28T18:58:05.696Z,1007.81
2018-11-28T18:59:20.690Z,1007.86
2018-11-28T19:00:14.733Z,1007.82
2018-11-28T19:01:31.316Z,1007.84
2018-11-28T19:02:39.311Z,1007.85
2018-11-28T19:03:41.979Z,1007.89
2018-11-28T19:04:37.995Z,1007.88
2018-11-28T19:05:44.195Z,1007.91
2018-11-28T19:06:56.701Z,1007.99
2018-11-28T19:07:55.692Z,1007.90
2018-11-28T19:09:01.201Z,1007.92
2018-11-28T19:10:17.193Z,1007.95
2018-11-28T19:11:21.978Z,1007.96
2018-11-28T19:12:14.701Z,1008.02
2018-11-28T19:13:28.231Z,1007.96
2018-11-28T19:14:29.787Z,1007.97
2018-11-28T19:15:34.697Z,1007.89
2018-11-28T19:16:39.196Z,1007.93
2018-11-28T19:17:49.785Z,1007.98
2018-11-28T19:18:58.698Z,1008.01
2018-11-28T19:19:56.355Z,1007.94
2018-11-28T19:21:09.196Z,1007.95
2018-11-28T19:22:13.698Z,1007.88
2018-11-28T19:23:18.404Z,1007.84
2018-11-28T19:24:20.352Z,1007.84
2018-11-28T19:25:29.697Z,1007.81
2018-11-28T19:26:45.702Z,1007.76
2018-11-28T19:27:37.707Z,1007.76
2018-11-28T19:28:42.706Z,1007.87
2018-11-28T19:30:02.209Z,1007.90
2018-11-28T19:30:49.282Z,1007.91
2018-11-28T19:31:54.004Z,1007.86
2018-11-28T19:33:10.203Z,1007.84
2018-11-28T19:34:02.256Z,1007.89
2018-11-28T19:35:20.042Z,1007.85
2018-11-28T19:36:25.701Z,1007.85
2018-11-28T19:37:37.877Z,1007.80
2018-11-28T19:38:41.702Z,1007.84
2018-11-28T19:39:55.711Z,1007.82
2018-11-28T19:40:34.933Z,1007.75
2018-11-28T19:41:54.703Z,1007.72
2018-11-28T19:42:56.704Z,1007.73
2018-11-28T19:43:58.204Z,1007.70
2018-11-28T19:44:59.205Z,1007.65
2018-11-28T19:46:13.205Z,1007.63
2018-11-28T19:47:26.705Z,1007.62
2018-11-28T19:48:20.456Z,1007.61
2018-11-28T19:49:25.383Z,1007.57
2018-11-28T19:50:34.706Z,1007.50
2018-11-28T19:51:39.739Z,1007.50
2018-11-28T19:52:55.213Z,1007.52
2018-11-28T19:53:40.478Z,1007.46
2018-11-28T19:54:48.265Z,1007.40
2018-11-28T19:55:58.829Z,1007.39
2018-11-28T19:57:09.708Z,1007.30
2018-11-28T19:58:04.712Z,1007.36
2018-11-28T19:59:14.707Z,1007.32
2018-11-28T20:00:29.071Z,1007.34
2018-11-28T20:01:32.255Z,1007.33
2018-11-28T20:02:37.721Z,1007.36
2018-11-28T20:03:42.768Z,1007.36
2018-11-28T20:04:54.212Z,1007.40
2018-11-28T20:05:51.027Z,1007.36
2018-11-28T20:06:51.213Z,1007.37
2018-11-28T20:08:11.711Z,1007.48
2018-11-28T20:10:11.554Z,1007.36
2018-11-28T20:11:15.213Z,1007.41
2018-11-28T20:12:40.719Z,1007.43
2018-11-28T20:13:37.788Z,1007.42
2018-11-28T20:14:24.076Z,1007.37
2018-11-28T20:15:43.216Z,1007.33
2018-11-28T20:18:02.231Z,1007.41
2018-11-28T20:19:01.283Z,1007.47
2018-11-28T20:20:02.519Z,1007.50
2018-11-28T20:21:05.723Z,1007.56
2018-11-28T20:22:12.217Z,1007.54
2018-11-28T20:23:20.214Z,1007.55
2018-11-28T20:24:31.716Z,1007.57
2018-11-28T20:25:36.254Z,1007.53
2018-11-28T20:26:41.224Z,1007.65
2018-11-28T20:27:41.287Z,1007.65
2018-11-28T20:28:49.717Z,1007.67
2018-11-28T20:29:59.225Z,1007.69
2018-11-28T20:31:00.218Z,1007.69
2018-11-28T20:32:09.726Z,1007.70
2018-11-28T20:33:00.291Z,1007.66
2018-11-28T20:34:29.738Z,1007.64
2018-11-28T20:35:16.224Z,1007.72
2018-11-28T20:36:21.719Z,1007.73
2018-11-28T20:37:37.231Z,1007.77
2018-11-28T20:38:32.221Z,1007.79
2018-11-28T20:39:46.009Z,1007.74
2018-11-28T20:40:48.672Z,1007.81
2018-11-28T20:41:55.230Z,1007.77
2018-11-28T20:43:04.223Z,1007.77
2018-11-28T20:44:00.224Z,1007.73
2018-11-28T20:45:06.231Z,1007.73
2018-11-28T20:46:20.724Z,1007.70
2018-11-28T20:47:15.724Z,1007.67
2018-11-28T20:48:27.724Z,1007.67
2018-11-28T20:49:49.725Z,1007.65
2018-11-28T20:50:43.725Z,1007.59
2018-11-28T20:51:43.230Z,1007.58
2018-11-28T20:52:59.225Z,1007.55
2018-11-28T20:54:06.727Z,1007.53
2018-11-28T20:54:56.225Z,1007.57
2018-11-28T20:55:55.972Z,1007.56
2018-11-28T20:57:17.343Z,1007.52
2018-11-28T20:58:17.188Z,1007.51
2018-11-28T20:59:26.227Z,1007.52
2018-11-28T21:00:27.226Z,1007.48
2018-11-28T21:01:35.742Z,1007.52
2018-11-28T21:02:39.037Z,1007.45
2018-11-28T21:03:52.729Z,1007.40
2018-11-28T21:04:57.906Z,1007.41
2018-11-28T21:05:55.727Z,1007.44
2018-11-28T21:06:55.673Z,1007.39
2018-11-28T21:08:09.228Z,1007.40
2018-11-28T21:09:15.739Z,1007.43
2018-11-28T21:10:26.239Z,1007.44
2018-11-28T21:11:30.729Z,1007.40
2018-11-28T21:12:32.234Z,1007.44
2018-11-28T21:13:36.469Z,1007.46